Time;durP1;ratioP1;P1;durP2;ratioP2;P2;SDS_P1;SDS_P2;PMS_P1;PMS_P2;Temp;Humidity;BMP_temperature;BMP_pressure;BME280_temperature;BME280_humidity;BME280_pressure;Samples;Min_cycle;Max_cycle;Signal;HPM_P1;HPM_P2
2022/05/03 00:01:51;;;;;;;14.45;3.50;;;;;;;;;;5145757;27;20530;-55
2022/05/03 00:04:37;;;;;;;22.25;3.22;;;;;;;;;;5105057;27;20665;-55
2022/05/03 00:07:22;;;;;;;10.73;3.25;;;;;;;;;;5104992;27;21198;-55
2022/05/03 00:10:04;;;;;;;10.95;3.25;;;;;;;;;;5104787;27;20591;-55
2022/05/03 00:12:47;;;;;;;9.93;3.05;;;;;;;;;;5146190;27;20538;-55
2022/05/03 00:15:28;;;;;;;8.27;4.05;;;;;;;;;;5084735;28;20676;-55
2022/05/03 00:18:09;;;;;;;9.27;2.78;;;;;;;;;;5100095;27;20551;-55
2022/05/03 00:20:50;;;;;;;8.32;2.95;;;;;;;;;;5146148;27;20599;-55
2022/05/03 00:23:29;;;;;;;7.43;2.88;;;;;;;;;;5084672;27;21072;-55
2022/05/03 00:26:10;;;;;;;6.30;2.70;;;;;;;;;;5084615;27;20553;-55
2022/05/03 00:28:50;;;;;;;4.68;2.22;;;;;;;;;;5084757;27;20870;-55
2022/05/03 00:31:30;;;;;;;3.72;2.63;;;;;;;;;;5105022;27;20674;-56
2022/05/03 00:34:11;;;;;;;3.08;2.42;;;;;;;;;;5125492;27;20560;-55
2022/05/03 00:36:51;;;;;;;3.28;3.08;;;;;;;;;;5146480;27;20894;-55
2022/05/03 00:39:31;;;;;;;4.53;3.00;;;;;;;;;;5084360;28;20672;-55
2022/05/03 00:42:14;;;;;;;3.45;3.05;;;;;;;;;;5104992;27;20537;-55
2022/05/03 00:45:03;;;;;;;3.30;3.10;;;;;;;;;;5084736;27;21072;-55
2022/05/03 00:47:47;;;;;;;2.97;2.85;;;;;;;;;;5082990;28;20668;-56
2022/05/03 00:50:34;;;;;;;2.97;2.80;;;;;;;;;;5104467;27;20631;-55
2022/05/03 00:53:18;;;;;;;3.10;2.90;;;;;;;;;;5125629;27;20548;-55
2022/05/03 00:56:04;;;;;;;3.15;2.85;;;;;;;;;;5145872;27;20543;-55
2022/05/03 00:58:56;;;;;;;3.20;3.00;;;;;;;;;;5146089;27;20691;-55
2022/05/03 01:01:41;;;;;;;3.47;2.95;;;;;;;;;;5085397;28;20864;-55
2022/05/03 01:04:25;;;;;;;3.05;2.85;;;;;;;;;;5085149;27;20532;-55
2022/05/03 01:07:14;;;;;;;3.20;3.00;;;;;;;;;;5137428;27;20546;-55
2022/05/03 01:09:58;;;;;;;3.45;3.20;;;;;;;;;;5084455;28;20679;-55
2022/05/03 01:12:49;;;;;;;3.15;2.88;;;;;;;;;;5146583;27;20591;-55
2022/05/03 01:15:32;;;;;;;2.72;2.53;;;;;;;;;;5084818;28;20695;-55
2022/05/03 01:18:23;;;;;;;3.08;2.88;;;;;;;;;;5134304;27;20656;-55
2022/05/03 01:21:12;;;;;;;3.50;2.97;;;;;;;;;;5105003;27;20541;-55
2022/05/03 01:24:01;;;;;;;2.90;2.70;;;;;;;;;;5078125;28;20625;-55
2022/05/03 01:26:59;;;;;;;2.88;2.67;;;;;;;;;;5083718;27;20546;-56
2022/05/03 01:29:41;;;;;;;2.88;2.67;;;;;;;;;;5084058;27;20551;-55
2022/05/03 01:32:21;;;;;;;2.65;2.50;;;;;;;;;;5104773;27;20545;-55
2022/05/03 01:35:02;;;;;;;3.40;2.40;;;;;;;;;;5163163;27;21037;-55
2022/05/03 01:37:59;;;;;;;2.90;2.70;;;;;;;;;;5084506;27;20675;-55
2022/05/03 01:40:53;;;;;;;3.08;2.88;;;;;;;;;;5084592;28;20691;-56
2022/05/03 01:43:45;;;;;;;2.72;2.53;;;;;;;;;;5084690;27;20702;-55
2022/05/03 01:46:25;;;;;;;2.60;2.40;;;;;;;;;;5084160;28;20676;-55
2022/05/03 01:52:19;;;;;;;3.33;3.03;;;;;;;;;;5084069;28;20664;-55
2022/05/03 01:55:04;;;;;;;2.95;2.75;;;;;;;;;;5084591;27;21208;-55
2022/05/03 01:58:04;;;;;;;2.55;2.40;;;;;;;;;;5131166;27;20668;-53
2022/05/03 02:00:47;;;;;;;2.83;2.63;;;;;;;;;;5125818;27;20601;-55
2022/05/03 02:03:30;;;;;;;2.80;2.60;;;;;;;;;;5084773;27;20565;-55
2022/05/03 02:06:12;;;;;;;3.05;2.85;;;;;;;;;;5084408;28;20597;-55
2022/05/03 02:08:59;;;;;;;3.08;2.72;;;;;;;;;;5073712;28;20705;-55
2022/05/03 02:11:47;;;;;;;2.97;2.53;;;;;;;;;;5155410;27;20546;-55
2022/05/03 02:14:46;;;;;;;2.92;2.72;;;;;;;;;;5084331;28;20624;-55
2022/05/03 02:17:46;;;;;;;3.03;2.83;;;;;;;;;;5104787;27;20626;-55
2022/05/03 02:20:33;;;;;;;3.10;2.90;;;;;;;;;;5083987;27;20549;-55
2022/05/03 02:23:17;;;;;;;3.05;2.85;;;;;;;;;;5084595;28;21170;-55
2022/05/03 02:26:14;;;;;;;2.80;2.60;;;;;;;;;;5105886;27;20559;-55
2022/05/03 02:28:56;;;;;;;2.72;2.63;;;;;;;;;;5084513;27;20573;-55
2022/05/03 02:31:43;;;;;;;3.22;3.00;;;;;;;;;;5084717;28;20601;-55
2022/05/03 02:34:33;;;;;;;2.65;2.45;;;;;;;;;;5083787;28;20687;-55
2022/05/03 02:37:18;;;;;;;3.03;2.53;;;;;;;;;;5104604;27;20954;-55
2022/05/03 02:40:01;;;;;;;2.30;2.20;;;;;;;;;;5104732;27;20607;-55
2022/05/03 02:42:41;;;;;;;2.58;2.45;;;;;;;;;;5160256;27;21061;-56
2022/05/03 02:45:20;;;;;;;2.40;2.30;;;;;;;;;;5083956;27;21489;-56
2022/05/03 02:48:08;;;;;;;2.70;2.55;;;;;;;;;;5137754;27;20569;-55
2022/05/03 02:50:53;;;;;;;2.97;2.78;;;;;;;;;;5084566;28;20551;-55
2022/05/03 02:53:37;;;;;;;2.92;2.75;;;;;;;;;;5084507;27;20540;-55
2022/05/03 02:56:23;;;;;;;3.10;2.90;;;;;;;;;;5085907;27;21036;-56
2022/05/03 02:59:11;;;;;;;3.30;3.10;;;;;;;;;;5084589;27;20566;-55
2022/05/03 03:01:56;;;;;;;3.20;3.00;;;;;;;;;;5083761;27;20572;-55
2022/05/03 03:04:40;;;;;;;3.20;3.00;;;;;;;;;;5084549;28;20963;-55
2022/05/03 03:07:20;;;;;;;3.67;3.42;;;;;;;;;;5104887;27;20549;-55
2022/05/03 03:10:04;;;;;;;3.80;3.50;;;;;;;;;;5104510;27;20669;-55
2022/05/03 03:12:53;;;;;;;3.83;3.42;;;;;;;;;;5125613;27;21206;-55
2022/05/03 03:15:38;;;;;;;3.22;3.03;;;;;;;;;;5084533;28;21196;-55
2022/05/03 03:18:22;;;;;;;3.47;3.28;;;;;;;;;;5084474;27;20987;-55
2022/05/03 03:21:06;;;;;;;3.45;3.25;;;;;;;;;;5125272;27;20552;-55
2022/05/03 03:23:49;;;;;;;3.17;2.97;;;;;;;;;;5125525;27;21060;-55
2022/05/03 03:26:30;;;;;;;3.53;3.33;;;;;;;;;;5133947;27;20560;-55
2022/05/03 03:29:11;;;;;;;4.30;4.00;;;;;;;;;;5136206;27;20695;-55
2022/05/03 03:31:51;;;;;;;3.97;3.67;;;;;;;;;;5125558;27;20540;-55
2022/05/03 03:34:31;;;;;;;3.20;3.00;;;;;;;;;;5084926;27;20540;-55
2022/05/03 03:37:12;;;;;;;3.85;3.50;;;;;;;;;;5132412;27;20673;-55
2022/05/03 03:39:52;;;;;;;3.90;3.63;;;;;;;;;;5145771;27;20567;-56
2022/05/03 03:42:32;;;;;;;4.13;3.78;;;;;;;;;;5104762;27;20525;-55
2022/05/03 03:45:13;;;;;;;4.05;3.42;;;;;;;;;;5146206;27;21201;-55
2022/05/03 03:47:54;;;;;;;3.65;3.45;;;;;;;;;;5145933;27;20542;-55
2022/05/03 03:50:36;;;;;;;3.53;3.33;;;;;;;;;;5145909;27;20546;-54
2022/05/03 03:53:16;;;;;;;3.60;3.40;;;;;;;;;;5185739;27;20657;-55
2022/05/03 03:55:57;;;;;;;4.10;3.80;;;;;;;;;;5104794;27;20693;-56
2022/05/03 03:58:37;;;;;;;3.65;3.45;;;;;;;;;;5084502;28;20617;-55
2022/05/03 04:01:17;;;;;;;4.45;4.15;;;;;;;;;;5145767;27;20539;-55
2022/05/03 04:03:57;;;;;;;3.70;3.50;;;;;;;;;;5083870;28;20703;-55
2022/05/03 04:06:37;;;;;;;3.97;3.78;;;;;;;;;;5104997;27;21058;-55
2022/05/03 04:09:17;;;;;;;3.67;3.47;;;;;;;;;;5084181;28;20687;-55
2022/05/03 04:11:59;;;;;;;3.92;3.58;;;;;;;;;;5105113;27;20550;-55
2022/05/03 04:14:39;;;;;;;3.83;3.60;;;;;;;;;;5118743;27;20547;-55
2022/05/03 04:17:19;;;;;;;4.43;4.13;;;;;;;;;;5120952;27;20535;-55
2022/05/03 04:19:59;;;;;;;4.25;3.85;;;;;;;;;;5090421;27;20548;-55
2022/05/03 04:22:47;;;;;;;3.83;3.63;;;;;;;;;;5079793;28;20438;-55
2022/05/03 04:25:27;;;;;;;4.60;4.30;;;;;;;;;;5072494;28;21715;-55
2022/05/03 04:28:07;;;;;;;3.63;3.42;;;;;;;;;;5082818;27;20581;-55
2022/05/03 04:30:46;;;;;;;4.00;3.80;;;;;;;;;;5122631;27;20681;-55
2022/05/03 04:33:26;;;;;;;5.57;3.45;;;;;;;;;;5111950;27;20731;-55
2022/05/03 04:36:07;;;;;;;3.92;3.63;;;;;;;;;;5083852;27;20543;-56
2022/05/03 04:38:46;;;;;;;4.82;4.47;;;;;;;;;;5081034;28;20435;-56
2022/05/03 04:41:26;;;;;;;4.40;4.00;;;;;;;;;;5125119;27;20544;-56
2022/05/03 04:44:06;;;;;;;3.90;3.60;;;;;;;;;;5084372;28;20543;-56
2022/05/03 04:46:45;;;;;;;4.60;4.30;;;;;;;;;;5084783;27;20549;-56
2022/05/03 04:49:26;;;;;;;4.47;3.83;;;;;;;;;;5124469;27;21061;-56
2022/05/03 04:52:06;;;;;;;4.90;4.57;;;;;;;;;;5104781;27;20603;-55
2022/05/03 04:54:45;;;;;;;4.45;4.15;;;;;;;;;;5139938;27;20592;-57
2022/05/03 04:57:25;;;;;;;4.25;4.00;;;;;;;;;;5153170;27;20554;-56
2022/05/03 05:00:05;;;;;;;4.90;4.60;;;;;;;;;;5124428;27;20987;-56
2022/05/03 05:02:46;;;;;;;4.15;3.95;;;;;;;;;;5145451;27;20693;-56
2022/05/03 05:05:26;;;;;;;5.53;5.15;;;;;;;;;;5142713;27;20540;-56
2022/05/03 05:08:07;;;;;;;4.90;4.63;;;;;;;;;;5146001;27;20554;-56
2022/05/03 05:10:47;;;;;;;4.13;3.83;;;;;;;;;;5154747;27;20542;-56
2022/05/03 05:13:27;;;;;;;4.28;3.95;;;;;;;;;;5085146;28;20695;-55
2022/05/03 05:16:07;;;;;;;5.32;5.03;;;;;;;;;;5085126;27;20560;-55
2022/05/03 05:18:49;;;;;;;5.13;4.72;;;;;;;;;;5133965;27;20559;-55
2022/05/03 05:21:30;;;;;;;5.47;5.15;;;;;;;;;;5104962;27;20662;-55
2022/05/03 05:24:11;;;;;;;4.90;4.60;;;;;;;;;;5104959;27;20603;-55
2022/05/03 05:26:51;;;;;;;4.78;4.47;;;;;;;;;;5084639;27;20540;-55
2022/05/03 05:29:31;;;;;;;5.22;4.72;;;;;;;;;;5104737;27;20566;-56
2022/05/03 05:32:11;;;;;;;5.35;5.05;;;;;;;;;;5158298;27;20560;-55
2022/05/03 05:34:50;;;;;;;8.23;7.72;;;;;;;;;;5146457;27;20534;-55
2022/05/03 05:37:30;;;;;;;8.10;4.93;;;;;;;;;;5084764;27;20675;-55
2022/05/03 05:40:11;;;;;;;5.80;5.40;;;;;;;;;;5083920;28;20589;-55
2022/05/03 05:42:55;;;;;;;5.05;4.65;;;;;;;;;;5106116;27;20891;-53
2022/05/03 05:45:35;;;;;;;6.05;5.65;;;;;;;;;;5084568;28;21037;-55
2022/05/03 05:48:16;;;;;;;5.90;5.50;;;;;;;;;;5079266;28;20681;-55
2022/05/03 05:50:56;;;;;;;7.30;6.80;;;;;;;;;;5084506;28;20543;-55
2022/05/03 05:53:36;;;;;;;8.77;8.13;;;;;;;;;;5084914;28;20547;-56
2022/05/03 05:56:15;;;;;;;10.00;8.50;;;;;;;;;;5125338;27;20544;-55
2022/05/03 05:58:55;;;;;;;8.70;8.10;;;;;;;;;;5145910;27;20554;-55
2022/05/03 06:01:38;;;;;;;7.45;6.82;;;;;;;;;;5084882;28;20683;-55
2022/05/03 06:04:18;;;;;;;7.05;6.65;;;;;;;;;;5104578;27;20583;-55
2022/05/03 06:06:58;;;;;;;7.10;6.47;;;;;;;;;;5126177;27;20536;-55
2022/05/03 06:09:38;;;;;;;8.05;7.28;;;;;;;;;;5084162;27;20569;-55
2022/05/03 06:12:18;;;;;;;8.40;7.90;;;;;;;;;;5084805;27;20569;-55
2022/05/03 06:14:57;;;;;;;10.43;9.73;;;;;;;;;;5084553;28;21079;-55
2022/05/03 06:17:40;;;;;;;11.40;10.50;;;;;;;;;;5084489;27;20561;-55
2022/05/03 06:20:20;;;;;;;9.82;9.15;;;;;;;;;;5104767;27;20666;-55
2022/05/03 06:23:00;;;;;;;9.20;8.40;;;;;;;;;;5105176;27;20595;-58
2022/05/03 06:25:40;;;;;;;8.15;7.60;;;;;;;;;;5145775;27;20422;-55
2022/05/03 06:28:20;;;;;;;7.13;6.40;;;;;;;;;;5078173;27;21089;-55
2022/05/03 06:31:00;;;;;;;9.43;8.63;;;;;;;;;;5125054;27;20556;-55
2022/05/03 06:33:40;;;;;;;8.52;7.78;;;;;;;;;;5084811;28;20668;-55
2022/05/03 06:36:21;;;;;;;7.68;7.18;;;;;;;;;;5125042;27;20544;-55
2022/05/03 06:39:01;;;;;;;8.07;7.47;;;;;;;;;;5072356;28;21020;-55
2022/05/03 06:41:41;;;;;;;7.65;7.18;;;;;;;;;;5130692;27;20673;-56
2022/05/03 06:44:20;;;;;;;7.32;6.85;;;;;;;;;;5146139;27;20667;-56
2022/05/03 06:47:00;;;;;;;8.52;7.78;;;;;;;;;;5084590;27;20581;-56
2022/05/03 06:49:40;;;;;;;7.90;7.15;;;;;;;;;;5145196;27;20570;-56
2022/05/03 06:52:20;;;;;;;7.13;6.63;;;;;;;;;;5145892;27;21182;-54
2022/05/03 06:55:00;;;;;;;7.72;7.07;;;;;;;;;;5084296;27;20923;-56
2022/05/03 06:57:40;;;;;;;7.20;6.70;;;;;;;;;;5083787;28;20668;-56
2022/05/03 07:00:20;;;;;;;7.22;6.72;;;;;;;;;;5145625;27;20669;-56
2022/05/03 07:02:59;;;;;;;6.68;6.18;;;;;;;;;;5146017;27;20662;-56
2022/05/03 07:05:39;;;;;;;6.80;6.18;;;;;;;;;;5085176;27;20589;-55
2022/05/03 07:08:19;;;;;;;6.47;6.07;;;;;;;;;;5078140;27;20565;-56
2022/05/03 07:10:59;;;;;;;7.00;6.50;;;;;;;;;;5108845;27;20537;-56
2022/05/03 07:13:38;;;;;;;6.85;6.35;;;;;;;;;;5105220;27;20673;-56
2022/05/03 07:16:18;;;;;;;6.32;5.93;;;;;;;;;;5084288;27;20573;-57
2022/05/03 07:25:04;;;;;;;6.30;5.85;;;;;;;;;;5084590;28;20683;-56
2022/05/03 07:27:45;;;;;;;5.82;5.43;;;;;;;;;;5125856;27;20540;-57
2022/05/03 07:30:25;;;;;;;5.60;5.20;;;;;;;;;;5084705;28;21049;-57
2022/05/03 07:33:05;;;;;;;5.57;5.18;;;;;;;;;;5105721;27;20669;-55
2022/05/03 07:35:45;;;;;;;5.70;5.30;;;;;;;;;;5155204;27;20539;-57
2022/05/03 07:38:25;;;;;;;5.10;4.70;;;;;;;;;;5098073;27;20686;-58
2022/05/03 07:41:05;;;;;;;4.93;4.32;;;;;;;;;;5084323;28;20956;-57
2022/05/03 07:43:44;;;;;;;4.80;4.50;;;;;;;;;;5084401;28;20679;-57
2022/05/03 07:46:24;;;;;;;5.22;4.88;;;;;;;;;;5146201;27;20653;-57
2022/05/03 07:49:04;;;;;;;5.22;4.85;;;;;;;;;;5159298;27;21007;-57
2022/05/03 07:51:44;;;;;;;4.82;4.43;;;;;;;;;;5125388;27;20536;-57
2022/05/03 07:54:24;;;;;;;4.40;4.10;;;;;;;;;;5125690;27;20547;-57
2022/05/03 07:57:04;;;;;;;4.68;4.38;;;;;;;;;;5084561;27;20543;-57
2022/05/03 07:59:45;;;;;;;5.35;5.05;;;;;;;;;;5084174;27;20581;-57
2022/05/03 08:02:25;;;;;;;5.22;4.93;;;;;;;;;;5145389;27;20663;-57
2022/05/03 08:05:05;;;;;;;5.03;4.72;;;;;;;;;;5125436;27;20693;-57
2022/05/03 08:07:45;;;;;;;4.75;4.45;;;;;;;;;;5146163;27;21190;-57
2022/05/03 08:10:25;;;;;;;5.22;4.82;;;;;;;;;;5084087;28;20676;-57
2022/05/03 08:13:04;;;;;;;5.43;5.13;;;;;;;;;;5084506;27;20679;-57
2022/05/03 08:15:44;;;;;;;4.80;4.50;;;;;;;;;;5084743;27;20556;-58
2022/05/03 08:18:24;;;;;;;5.00;4.70;;;;;;;;;;5097916;27;20547;-56
2022/05/03 08:21:04;;;;;;;4.88;4.57;;;;;;;;;;5084430;28;21042;-57
2022/05/03 08:23:44;;;;;;;5.07;4.75;;;;;;;;;;5125586;27;20571;-56
2022/05/03 08:26:23;;;;;;;4.22;4.03;;;;;;;;;;5084540;28;20599;-57
2022/05/03 08:29:03;;;;;;;5.18;4.88;;;;;;;;;;5072092;27;20575;-56
2022/05/03 08:31:43;;;;;;;5.00;4.60;;;;;;;;;;5085420;27;20568;-57
2022/05/03 08:34:23;;;;;;;5.25;4.95;;;;;;;;;;5084823;28;21035;-57
2022/05/03 08:42:58;;;;;;;5.10;4.80;;;;;;;;;;5105689;27;20666;-62
2022/05/03 08:45:37;;;;;;;3.58;3.38;;;;;;;;;;5084686;27;20587;-56
2022/05/03 08:48:18;;;;;;;4.45;4.10;;;;;;;;;;5078764;27;20690;-56
2022/05/03 08:51:00;;;;;;;5.47;4.55;;;;;;;;;;5085296;28;20675;-55
2022/05/03 08:53:41;;;;;;;4.03;3.70;;;;;;;;;;5126158;27;20547;-55
2022/05/03 08:56:21;;;;;;;3.88;3.60;;;;;;;;;;5084659;28;21138;-55
2022/05/03 08:59:02;;;;;;;3.53;3.30;;;;;;;;;;5146334;27;20616;-56
2022/05/03 09:01:41;;;;;;;4.03;3.72;;;;;;;;;;5105085;27;20669;-56
2022/05/03 09:04:21;;;;;;;3.28;2.88;;;;;;;;;;5105323;27;20538;-56
2022/05/03 09:07:16;;;;;;;3.88;3.20;;;;;;;;;;5084996;27;20822;-56
2022/05/03 09:09:57;;;;;;;3.60;3.40;;;;;;;;;;5084597;27;20582;-54
2022/05/03 09:12:37;;;;;;;3.50;3.30;;;;;;;;;;5104891;27;20538;-56
2022/05/03 09:15:17;;;;;;;3.60;3.30;;;;;;;;;;5084789;28;20687;-56
2022/05/03 09:17:58;;;;;;;3.28;2.97;;;;;;;;;;5141895;27;20557;-56
2022/05/03 09:23:50;;;;;;;5.22;3.58;;;;;;;;;;5084623;28;20679;-56
2022/05/03 09:26:31;;;;;;;4.28;3.97;;;;;;;;;;5072164;27;20575;-56
2022/05/03 09:29:14;;;;;;;3.58;3.38;;;;;;;;;;5146703;27;21108;-56
2022/05/03 09:31:54;;;;;;;3.50;3.20;;;;;;;;;;5104853;27;21022;-56
2022/05/03 09:34:33;;;;;;;3.58;3.30;;;;;;;;;;5084500;27;20890;-56
2022/05/03 09:37:13;;;;;;;4.18;3.03;;;;;;;;;;5084232;28;20689;-56
2022/05/03 09:39:54;;;;;;;4.13;2.95;;;;;;;;;;5105370;27;20766;-56
2022/05/03 09:42:36;;;;;;;4.43;2.40;;;;;;;;;;5084906;27;20551;-56
2022/05/03 09:45:22;;;;;;;2.53;2.33;;;;;;;;;;5125364;27;20544;-56
2022/05/03 09:48:02;;;;;;;2.53;2.30;;;;;;;;;;5081033;28;20611;-56
2022/05/03 09:50:43;;;;;;;2.70;2.50;;;;;;;;;;5084835;27;20551;-56
2022/05/03 09:53:23;;;;;;;2.55;2.25;;;;;;;;;;5106306;27;20549;-56
2022/05/03 09:56:09;;;;;;;2.13;2.00;;;;;;;;;;5084586;28;20676;-56
2022/05/03 09:58:51;;;;;;;2.50;2.30;;;;;;;;;;5094676;27;20555;-55
2022/05/03 10:01:31;;;;;;;2.60;2.40;;;;;;;;;;5084791;28;20540;-56
2022/05/03 10:04:11;;;;;;;3.60;2.65;;;;;;;;;;5104570;27;20680;-56
2022/05/03 10:06:52;;;;;;;3.50;3.20;;;;;;;;;;5084723;28;20601;-55
2022/05/03 10:09:33;;;;;;;5.88;3.10;;;;;;;;;;5084646;28;20699;-56
2022/05/03 10:12:17;;;;;;;2.60;2.40;;;;;;;;;;5084473;27;20572;-54
2022/05/03 10:14:56;;;;;;;3.05;2.72;;;;;;;;;;5105373;27;21070;-56
2022/05/03 10:20:40;;;;;;;3.30;2.80;;;;;;;;;;5085060;28;20675;-56
2022/05/03 10:23:21;;;;;;;2.90;2.70;;;;;;;;;;5105339;27;21220;-55
2022/05/03 10:26:03;;;;;;;2.97;2.78;;;;;;;;;;5105991;27;20678;-55
2022/05/03 10:29:00;;;;;;;3.10;2.90;;;;;;;;;;5075683;27;20976;-55
2022/05/03 10:31:57;;;;;;;2.95;2.75;;;;;;;;;;5146425;27;20538;-56
2022/05/03 10:34:45;;;;;;;2.65;2.45;;;;;;;;;;5084879;28;20880;-53
2022/05/03 10:37:37;;;;;;;2.58;2.40;;;;;;;;;;5105077;27;20572;-56
2022/05/03 10:52:18;;;;;;;2.60;2.08;;;20.60;99.90;;;;;;5102797;27;20562;-54
2022/05/03 12:26:44;;;;;;;2.22;2.05;;;21.00;94.10;;;;;;5113347;27;20573;-56
2022/05/03 12:29:26;;;;;;;2.58;2.42;;;21.50;95.20;;;;;;5142448;27;20620;-57
2022/05/03 12:32:14;;;;;;;2.58;2.38;;;21.60;97.90;;;;;;5120891;27;20537;-57
2022/05/03 12:35:01;;;;;;;3.28;2.10;;;22.10;99.90;;;;;;5105308;27;20682;-55
2022/05/03 12:37:52;;;;;;;2.10;2.00;;;22.40;92.00;;;;;;5132603;27;20556;-57
2022/05/03 12:40:33;;;;;;;2.42;2.20;;;22.30;91.40;;;;;;5135839;27;20548;-56
2022/05/03 12:43:15;;;;;;;7.90;2.75;;;22.10;90.90;;;;;;5158324;27;20537;-55
2022/05/03 12:46:01;;;;;;;2.10;2.00;;;21.70;93.50;;;;;;5138955;27;20527;-56
2022/05/03 12:48:40;;;;;;;2.63;2.42;;;21.10;94.90;;;;;;5090431;28;20577;-56
2022/05/03 12:51:20;;;;;;;2.40;2.30;;;20.90;95.10;;;;;;5143627;27;21229;-56
2022/05/03 12:54:03;;;;;;;2.78;2.10;;;20.80;93.50;;;;;;5137439;27;20547;-56
2022/05/03 12:59:41;;;;;;;1.70;1.60;;;21.00;95.20;;;;;;5090091;27;20573;-56
2022/05/03 13:02:21;;;;;;;1.90;1.80;;;21.30;92.10;;;;;;5095934;28;20960;-55
2022/05/03 13:05:00;;;;;;;2.13;1.92;;;21.10;92.50;;;;;;5086916;27;21042;-56
2022/05/03 13:07:40;;;;;;;3.50;1.95;;;21.10;97.60;;;;;;5130775;27;20743;-56
2022/05/03 13:10:20;;;;;;;1.70;1.60;;;21.30;93.30;;;;;;5141957;27;20672;-56
2022/05/03 13:13:01;;;;;;;1.73;1.63;;;21.10;90.40;;;;;;5095931;27;20551;-56
2022/05/03 13:15:41;;;;;;;1.65;1.55;;;21.00;89.40;;;;;;5120514;27;20597;-56
2022/05/03 13:18:21;;;;;;;4.78;1.70;;;21.30;87.20;;;;;;5136847;27;20625;-56
2022/05/03 13:21:01;;;;;;;1.98;1.25;;;21.50;84.80;;;;;;5070484;27;20543;-56
2022/05/03 13:23:41;;;;;;;2.35;1.40;;;21.70;76.10;;;;;;5095191;27;20568;-56
2022/05/03 13:26:20;;;;;;;3.38;1.63;;;21.50;80.60;;;;;;5091534;28;21041;-54
2022/05/03 13:29:02;;;;;;;1.50;1.40;;;21.20;77.10;;;;;;5094143;27;21014;-56
2022/05/03 13:31:43;;;;;;;1.65;1.55;;;21.30;80.30;;;;;;5091231;27;20568;-56
2022/05/03 13:34:23;;;;;;;1.88;1.52;;;21.60;78.90;;;;;;5123839;27;20536;-56
2022/05/03 13:43:04;;;;;;;1.70;1.60;;;21.30;75.20;;;;;;5134339;27;20672;-56
2022/05/03 13:45:44;;;;;;;1.73;1.63;;;21.10;83.00;;;;;;5153036;27;20562;-54
2022/05/03 13:48:24;;;;;;;1.80;1.70;;;21.30;81.20;;;;;;5095019;27;20566;-55
2022/05/03 13:51:06;;;;;;;2.22;2.03;;;21.20;79.60;;;;;;5142096;27;20711;-56
2022/05/03 13:53:45;;;;;;;2.00;1.90;;;21.20;89.20;;;;;;5094371;27;20568;-56
2022/05/03 13:56:25;;;;;;;2.47;2.28;;;21.40;83.70;;;;;;5122214;27;20590;-55
2022/05/03 13:59:06;;;;;;;2.45;2.25;;;21.40;86.80;;;;;;5127816;27;20665;-53
2022/05/03 14:01:46;;;;;;;2.17;2.08;;;20.90;86.70;;;;;;5082271;27;20560;-56
2022/05/03 14:04:27;;;;;;;2.30;2.10;;;20.50;92.20;;;;;;5083756;28;21013;-55
2022/05/03 14:07:08;;;;;;;3.92;2.78;;;20.40;95.40;;;;;;5143753;27;20655;-56
2022/05/03 14:09:47;;;;;;;3.28;3.00;;;20.50;96.30;;;;;;5120791;27;20687;-53
2022/05/03 14:12:27;;;;;;;2.58;2.38;;;20.50;98.50;;;;;;5091884;28;20676;-55
2022/05/03 14:15:08;;;;;;;3.33;2.40;;;20.40;96.90;;;;;;5090386;27;20539;-53
2022/05/03 14:17:47;;;;;;;2.42;1.92;;;20.40;95.70;;;;;;5081477;27;20547;-55
2022/05/03 14:20:28;;;;;;;2.20;2.10;;;20.20;94.70;;;;;;5096038;27;20563;-55
2022/05/03 14:23:08;;;;;;;2.63;2.42;;;20.20;95.70;;;;;;5145308;27;21189;-56
2022/05/03 14:25:48;;;;;;;4.60;2.60;;;20.20;98.40;;;;;;5091723;28;20805;-53
2022/05/03 14:28:29;;;;;;;2.50;2.30;;;20.00;99.90;;;;;;5154060;27;20538;-55
2022/05/03 14:31:10;;;;;;;2.83;2.50;;;20.00;99.90;;;;;;5136705;27;21201;-53
2022/05/03 14:33:49;;;;;;;2.75;2.53;;;20.20;99.90;;;;;;5136484;27;20600;-53
2022/05/03 14:36:30;;;;;;;2.08;1.98;;;20.20;99.90;;;;;;5159125;27;20525;-55
2022/05/03 14:39:10;;;;;;;5.18;2.72;;;20.10;97.70;;;;;;5095480;27;21210;-55
2022/05/03 14:41:51;;;;;;;2.65;2.45;;;19.90;99.90;;;;;;5145221;27;20596;-53
2022/05/03 14:44:32;;;;;;;3.45;2.78;;;20.20;99.60;;;;;;5124486;27;20540;-56
2022/05/03 14:47:11;;;;;;;3.13;2.85;;;20.30;99.90;;;;;;5082019;27;20573;-53
2022/05/03 14:49:51;;;;;;;2.95;2.75;;;20.40;99.90;;;;;;5119965;27;20585;-55
2022/05/03 14:52:31;;;;;;;2.78;2.58;;;20.40;99.90;;;;;;5098986;27;20530;-54
2022/05/03 14:55:12;;;;;;;2.97;2.20;;;20.70;99.80;;;;;;5121233;27;20532;-56
2022/05/03 15:03:47;;;;;;;2.67;2.58;;;20.40;97.70;;;;;;5144853;27;20681;-55
2022/05/03 15:06:27;;;;;;;2.53;2.00;;;20.40;97.40;;;;;;5117850;27;21163;-55
2022/05/03 15:09:07;;;;;;;2.50;2.30;;;20.30;95.20;;;;;;5104158;27;20666;-53
2022/05/03 15:11:46;;;;;;;2.08;1.98;;;20.40;97.20;;;;;;5100247;27;20561;-55
2022/05/03 15:14:26;;;;;;;2.38;2.28;;;20.70;96.10;;;;;;5097114;27;20565;-55
2022/05/03 15:17:06;;;;;;;2.47;2.28;;;20.80;95.80;;;;;;5133874;27;20673;-53
2022/05/03 15:19:46;;;;;;;2.08;1.98;;;20.80;95.90;;;;;;5101051;28;21195;-53
2022/05/03 15:25:20;;;;;;;3.33;2.58;;;20.60;96.20;;;;;;5095820;27;21431;-56
2022/05/03 15:28:00;;;;;;;2.10;2.00;;;20.90;97.40;;;;;;5102436;28;20689;-53
2022/05/03 15:30:40;;;;;;;2.72;2.53;;;21.30;95.40;;;;;;5119854;27;21069;-55
2022/05/03 15:33:21;;;;;;;2.90;2.60;;;21.40;95.20;;;;;;5096925;28;20603;-55
2022/05/03 15:36:01;;;;;;;2.55;2.35;;;21.50;93.80;;;;;;5123160;27;20536;-56
2022/05/03 15:38:41;;;;;;;2.10;2.00;;;21.60;92.80;;;;;;5136919;27;21353;-55
2022/05/03 15:41:23;;;;;;;2.15;2.05;;;21.70;94.70;;;;;;5118867;27;20569;-55
2022/05/03 15:44:02;;;;;;;1.90;1.80;;;22.60;90.00;;;;;;5096384;28;20657;-56
2022/05/03 15:46:44;;;;;;;2.58;2.25;;;24.00;76.40;;;;;;5085844;27;20577;-54
2022/05/03 15:49:25;;;;;;;1.90;1.80;;;25.20;70.20;;;;;;5084667;28;21118;-56
2022/05/03 15:52:05;;;;;;;1.75;1.65;;;25.80;66.20;;;;;;5125303;27;20544;-55
2022/05/03 15:54:45;;;;;;;2.25;2.15;;;26.10;64.20;;;;;;5087068;27;20544;-56
2022/05/03 15:57:25;;;;;;;1.92;1.83;;;26.70;60.10;;;;;;5091129;27;20565;-54
2022/05/03 16:00:07;;;;;;;3.72;2.20;;;27.30;53.60;;;;;;5122419;27;20555;-57
2022/05/03 16:02:47;;;;;;;2.28;2.10;;;27.20;51.80;;;;;;5099169;28;20669;-55
2022/05/03 16:05:27;;;;;;;2.92;2.25;;;26.80;51.80;;;;;;5137196;27;20547;-53
2022/05/03 16:08:07;;;;;;;2.50;2.00;;;26.80;54.00;;;;;;5092208;28;21173;-56
2022/05/03 16:10:47;;;;;;;1.85;1.75;;;27.00;50.50;;;;;;5115955;27;20606;-55
2022/05/03 16:13:27;;;;;;;2.30;2.10;;;27.10;47.50;;;;;;5125189;27;20536;-55
2022/05/03 16:16:06;;;;;;;1.90;1.80;;;26.30;49.20;;;;;;5112924;27;20633;-55
2022/05/03 16:18:46;;;;;;;1.63;1.52;;;24.70;52.40;;;;;;5091654;27;20544;-55
2022/05/03 16:21:26;;;;;;;1.55;1.45;;;23.70;52.50;;;;;;5123089;27;21065;-53
2022/05/03 16:24:07;;;;;;;2.10;1.90;;;23.10;56.40;;;;;;5092412;27;21073;-53
2022/05/03 16:26:49;;;;;;;2.75;1.80;;;23.60;56.10;;;;;;5135584;27;21298;-55
2022/05/03 16:29:29;;;;;;;2.63;1.70;;;23.30;55.50;;;;;;5127956;27;20601;-55
2022/05/03 16:32:09;;;;;;;3.20;2.08;;;22.60;58.60;;;;;;5137898;27;20539;-55
2022/05/03 16:34:48;;;;;;;2.00;1.90;;;22.20;64.60;;;;;;5109249;27;20665;-55
2022/05/03 16:43:24;;;;;;;2.22;2.13;;;21.20;78.70;;;;;;5088787;28;20554;-55
2022/05/03 16:46:05;;;;;;;2.30;2.08;;;21.30;74.20;;;;;;5165117;27;20540;-56
2022/05/03 16:48:46;;;;;;;4.72;2.47;;;21.10;79.20;;;;;;5128083;27;20536;-54
2022/05/03 16:51:27;;;;;;;2.70;2.50;;;20.70;81.90;;;;;;5124603;27;21296;-54
2022/05/03 16:54:07;;;;;;;3.00;2.70;;;20.20;89.50;;;;;;5088874;27;20587;-52
2022/05/03 16:56:51;;;;;;;3.03;2.30;;;19.70;92.60;;;;;;5131807;27;20551;-55
2022/05/03 16:59:32;;;;;;;2.67;2.22;;;19.10;95.80;;;;;;5154949;27;20534;-53
2022/05/03 17:02:14;;;;;;;2.58;2.38;;;18.70;99.00;;;;;;5136571;27;20655;-54
2022/05/03 17:04:56;;;;;;;2.30;2.10;;;18.40;99.90;;;;;;5132220;27;20528;-53
2022/05/03 17:07:36;;;;;;;2.70;2.50;;;18.10;99.90;;;;;;5084526;28;20683;-54
2022/05/03 17:10:16;;;;;;;2.40;2.20;;;17.80;99.90;;;;;;5129845;27;20916;-56
2022/05/03 17:12:55;;;;;;;2.70;2.50;;;17.50;99.90;;;;;;5094683;27;20603;-52
2022/05/03 17:15:35;;;;;;;2.70;2.50;;;17.30;99.90;;;;;;5143821;27;20539;-55
2022/05/03 17:18:15;;;;;;;2.85;2.65;;;17.20;99.90;;;;;;5140895;27;20670;-52
2022/05/03 17:20:55;;;;;;;3.22;2.92;;;17.00;99.90;;;;;;5134035;27;20550;-55
2022/05/03 17:23:35;;;;;;;3.58;3.38;;;16.80;99.90;;;;;;5118121;27;20685;-53
2022/05/03 17:26:15;;;;;;;3.42;3.22;;;16.50;99.90;;;;;;5140480;27;21237;-54
2022/05/03 17:28:57;;;;;;;5.22;3.13;;;16.40;99.90;;;;;;5085921;28;20595;-55
2022/05/03 17:31:36;;;;;;;3.03;2.83;;;16.20;99.90;;;;;;5066497;27;20553;-54
2022/05/03 17:34:16;;;;;;;2.75;2.47;;;16.10;99.90;;;;;;5105011;27;21101;-55
2022/05/03 17:36:56;;;;;;;2.55;2.35;;;15.80;99.90;;;;;;5107339;27;20542;-53
2022/05/03 17:39:35;;;;;;;2.53;2.42;;;15.60;99.90;;;;;;5122746;27;20579;-54
2022/05/03 17:42:15;;;;;;;2.28;2.17;;;15.40;99.90;;;;;;5131003;27;20682;-54
2022/05/03 17:44:55;;;;;;;2.47;2.38;;;15.20;99.90;;;;;;5092508;27;20555;-55
2022/05/03 17:47:35;;;;;;;2.45;2.35;;;15.00;99.90;;;;;;5087749;28;20547;-55
2022/05/03 17:50:15;;;;;;;3.55;3.35;;;14.80;99.90;;;;;;5090760;27;20584;-55